Neville Island, Pennsylvania
Current Conditions -  °F | °C
As of 12:51 AM on Thursday 23 Oct 2014 (Local Time) from KPIT Reporting Station
Overcast Overcast  
Wind Chill: 41°   Ceiling: 4200
Heat Index: 45°   Visibility: 10mi
Dew Point: 40°   Wind: 8mph
Humidity: 82%   Direction: 310°NW
Pressure: 30.16"   Gusts: NA
Location:  40.5051°N, 80.1093°W
Report Text: KPIT 230451Z 31007KT 10SM OVC042 07/04 A3016 RMK AO2 SLP224 T00720044 401000067
Loading
Personal Weather Stations






























Interactive Weather Map
Tropical Storm Tracking
New forecast layout! Learn more

10-Day Weather Forecast

Advertisements
Track Severe Weather on mobile